Time;durP1;ratioP1;P1;durP2;ratioP2;P2;SDS_P1;SDS_P2;PMS_P1;PMS_P2;Temp;Humidity;BMP_temperature;BMP_pressure;BME280_temperature;BME280_humidity;BME280_pressure;Samples;Min_cycle;Max_cycle;Signal;HPM_P1;HPM_P2
2022/04/18 00:01:49;;;;;;;5.23;3.70;;;6.50;97.90;;;;;;5048181;28;20214;-45
2022/04/18 00:04:15;;;;;;;4.90;3.57;;;6.50;98.00;;;;;;5058052;28;20761;-43
2022/04/18 00:06:45;;;;;;;5.13;3.17;;;6.50;97.60;;;;;;5046805;28;20209;-45
2022/04/18 00:09:12;;;;;;;5.17;3.27;;;6.40;97.00;;;;;;5051980;28;20664;-44
2022/04/18 00:11:39;;;;;;;5.33;3.50;;;6.40;97.30;;;;;;5052890;28;20234;-43
2022/04/18 00:14:06;;;;;;;4.20;3.27;;;6.40;98.40;;;;;;5058864;28;20275;-47
2022/04/18 00:16:33;;;;;;;4.13;3.17;;;6.40;99.30;;;;;;5052449;28;20199;-44
2022/04/18 00:19:00;;;;;;;3.43;3.03;;;6.40;99.90;;;;;;5050163;28;20621;-46
2022/04/18 00:21:27;;;;;;;5.37;3.10;;;6.30;99.90;;;;;;5040820;28;20236;-46
2022/04/18 00:23:55;;;;;;;3.97;3.30;;;6.20;99.90;;;;;;5056071;28;20282;-43
2022/04/18 00:26:22;;;;;;;4.90;3.43;;;6.10;99.90;;;;;;5045142;28;20500;-44
2022/04/18 00:28:49;;;;;;;3.63;3.33;;;6.10;99.90;;;;;;5060105;28;20687;-45
2022/04/18 00:31:17;;;;;;;4.17;3.13;;;6.00;99.90;;;;;;5049519;28;20811;-44
2022/04/18 00:33:44;;;;;;;4.20;2.93;;;5.90;99.90;;;;;;5048371;28;20207;-47
2022/04/18 00:36:10;;;;;;;5.90;3.50;;;5.90;99.90;;;;;;5043909;28;20289;-44
2022/04/18 00:38:38;;;;;;;3.50;3.17;;;5.90;99.90;;;;;;5056437;28;20221;-49
2022/04/18 00:41:07;;;;;;;4.57;2.87;;;5.90;99.90;;;;;;5047425;28;20688;-43
2022/04/18 00:43:39;;;;;;;3.60;3.30;;;5.90;99.90;;;;;;5046755;28;20214;-44
2022/04/18 00:46:07;;;;;;;4.80;3.27;;;5.90;99.90;;;;;;5050501;28;20204;-44
2022/04/18 00:48:35;;;;;;;3.70;3.00;;;5.80;99.90;;;;;;5045685;28;20203;-43
2022/04/18 00:51:02;;;;;;;3.57;2.73;;;5.80;99.90;;;;;;5040147;28;20230;-47
2022/04/18 00:53:29;;;;;;;3.63;3.10;;;5.80;99.90;;;;;;5058140;28;20207;-45
2022/04/18 00:55:56;;;;;;;4.33;3.27;;;5.70;99.90;;;;;;5053450;28;20287;-44
2022/04/18 00:58:25;;;;;;;3.43;3.00;;;5.70;99.90;;;;;;5044422;28;20330;-43
2022/04/18 01:00:53;;;;;;;4.33;2.83;;;5.70;99.90;;;;;;5063377;28;20278;-43
2022/04/18 01:03:20;;;;;;;4.00;3.60;;;5.60;99.90;;;;;;5045458;28;20278;-44
2022/04/18 01:05:48;;;;;;;4.73;3.20;;;5.60;99.90;;;;;;5050157;28;20239;-44
2022/04/18 01:08:15;;;;;;;5.10;3.80;;;5.60;99.90;;;;;;5038215;28;20218;-44
2022/04/18 01:10:44;;;;;;;4.27;3.20;;;5.50;99.90;;;;;;5053171;28;20203;-45
2022/04/18 01:13:11;;;;;;;4.00;2.97;;;5.40;99.90;;;;;;5044377;28;20211;-45
2022/04/18 01:15:53;;;;;;;4.10;3.43;;;5.40;99.90;;;;;;5050308;28;20207;-45
2022/04/18 01:18:41;;;;;;;3.60;3.07;;;5.40;99.90;;;;;;5044208;28;20203;-44
2022/04/18 01:21:32;;;;;;;3.53;2.90;;;5.30;99.90;;;;;;5047450;28;22000;-44
2022/04/18 01:29:59;;;;;;;7.60;3.63;;;5.20;99.90;;;;;;5045519;28;20680;-46
2022/04/18 01:32:26;;;;;;;6.17;3.63;;;5.10;99.90;;;;;;5053960;28;20223;-42
2022/04/18 01:34:54;;;;;;;5.40;3.50;;;5.10;99.90;;;;;;5046221;28;20293;-45
2022/04/18 01:37:22;;;;;;;4.87;3.47;;;5.10;99.90;;;;;;5034176;28;20296;-43
2022/04/18 01:39:49;;;;;;;3.43;3.13;;;5.00;99.90;;;;;;5056068;28;20689;-43
2022/04/18 01:42:16;;;;;;;4.43;2.80;;;5.00;99.90;;;;;;5043308;28;20931;-44
2022/04/18 01:44:43;;;;;;;4.80;3.30;;;5.00;99.90;;;;;;5047045;28;20201;-46
2022/04/18 01:47:10;;;;;;;4.00;3.30;;;5.00;99.90;;;;;;5052212;28;20195;-47
2022/04/18 01:49:37;;;;;;;3.67;3.30;;;5.00;99.90;;;;;;5054223;28;20264;-43
2022/04/18 01:52:04;;;;;;;4.13;3.10;;;5.00;99.90;;;;;;5050000;28;20232;-45
2022/04/18 01:54:33;;;;;;;4.47;3.40;;;5.00;99.90;;;;;;5043739;28;20259;-44
2022/04/18 01:56:59;;;;;;;5.90;3.50;;;5.00;99.90;;;;;;5049716;28;20626;-45
2022/04/18 01:59:27;;;;;;;3.53;3.23;;;4.90;99.90;;;;;;5045618;28;20195;-46
2022/04/18 02:01:53;;;;;;;3.83;3.17;;;4.90;99.90;;;;;;5045927;28;20590;-45
2022/04/18 02:04:21;;;;;;;4.80;3.30;;;4.80;99.90;;;;;;5048609;28;20221;-44
2022/04/18 02:06:47;;;;;;;6.00;3.63;;;4.80;99.90;;;;;;5048757;28;20203;-43
2022/04/18 02:09:14;;;;;;;4.53;2.97;;;4.80;99.90;;;;;;5038701;28;20958;-43
2022/04/18 02:11:43;;;;;;;4.70;4.17;;;4.70;99.90;;;;;;5061690;28;20253;-44
2022/04/18 02:14:10;;;;;;;3.80;3.30;;;4.70;99.90;;;;;;5039991;28;20227;-44
2022/04/18 02:16:38;;;;;;;4.60;3.37;;;4.70;99.90;;;;;;5043420;28;20218;-43
2022/04/18 02:19:07;;;;;;;4.30;3.50;;;4.80;99.90;;;;;;5048177;28;20210;-43
2022/04/18 02:21:34;;;;;;;4.83;3.40;;;4.70;99.90;;;;;;5045900;28;20231;-45
2022/04/18 02:24:02;;;;;;;3.90;3.53;;;4.70;99.90;;;;;;5052662;28;20195;-44
2022/04/18 02:26:29;;;;;;;4.83;3.17;;;4.70;99.90;;;;;;5048308;28;20199;-45
2022/04/18 02:29:11;;;;;;;5.67;3.47;;;4.70;99.90;;;;;;5041775;28;20629;-46
2022/04/18 02:34:18;;;;;;;4.40;3.07;;;4.60;99.90;;;;;;5044055;28;20217;-44
2022/04/18 02:36:46;;;;;;;4.87;3.53;;;4.60;99.90;;;;;;5043217;28;20211;-45
2022/04/18 02:39:13;;;;;;;5.30;4.03;;;4.50;99.90;;;;;;5048425;28;20186;-44
2022/04/18 02:41:40;;;;;;;5.27;4.20;;;4.40;99.90;;;;;;5050294;28;20251;-44
2022/04/18 02:44:07;;;;;;;4.27;3.67;;;4.40;99.90;;;;;;5050041;28;20253;-44
2022/04/18 02:46:35;;;;;;;6.17;3.80;;;4.40;99.90;;;;;;5043881;28;20206;-44
2022/04/18 02:49:04;;;;;;;3.43;3.13;;;4.30;99.90;;;;;;5050222;28;20221;-45
2022/04/18 02:51:32;;;;;;;5.10;3.87;;;4.40;99.90;;;;;;5055983;28;20217;-44
2022/04/18 02:54:05;;;;;;;5.37;4.03;;;4.40;99.90;;;;;;5037746;28;20215;-47
2022/04/18 02:56:35;;;;;;;5.07;4.10;;;4.30;99.90;;;;;;5046604;28;20700;-44
2022/04/18 02:59:01;;;;;;;4.20;3.80;;;4.30;99.90;;;;;;5043560;28;20685;-46
2022/04/18 03:01:29;;;;;;;6.03;3.70;;;4.30;99.90;;;;;;5052293;28;21048;-45
2022/04/18 03:03:59;;;;;;;4.70;3.97;;;4.30;99.90;;;;;;5065349;28;20222;-45
2022/04/18 03:06:26;;;;;;;5.20;3.70;;;4.30;99.90;;;;;;5050968;28;20194;-44
2022/04/18 03:08:56;;;;;;;4.63;3.97;;;4.30;99.90;;;;;;5042720;28;20229;-49
2022/04/18 03:11:22;;;;;;;4.67;3.70;;;4.20;99.90;;;;;;5033147;28;20207;-44
2022/04/18 03:13:49;;;;;;;6.20;4.20;;;4.20;99.90;;;;;;5058718;28;20309;-44
2022/04/18 03:16:52;;;;;;;5.17;3.73;;;4.20;99.90;;;;;;5039678;28;20202;-45
2022/04/18 03:19:20;;;;;;;4.97;3.60;;;4.10;99.90;;;;;;5048174;28;20205;-46
2022/04/18 03:21:52;;;;;;;4.27;3.87;;;4.10;99.90;;;;;;5047907;28;20647;-45
2022/04/18 03:24:19;;;;;;;4.97;4.20;;;4.10;99.90;;;;;;5042632;28;20970;-43
2022/04/18 03:27:09;;;;;;;5.40;3.73;;;4.00;99.90;;;;;;5040976;28;20225;-48
2022/04/18 03:29:38;;;;;;;22.13;10.23;;;3.90;99.90;;;;;;5052715;28;20206;-46
2022/04/18 03:32:07;;;;;;;4.43;3.80;;;3.90;99.90;;;;;;5041435;28;20221;-44
2022/04/18 03:34:36;;;;;;;7.37;4.67;;;3.90;99.90;;;;;;5047995;28;20219;-44
2022/04/18 03:39:52;;;;;;;5.20;4.10;;;3.90;99.90;;;;;;5043884;28;20202;-44
2022/04/18 03:42:31;;;;;;;7.90;5.07;;;3.90;99.90;;;;;;5036526;28;20214;-44
2022/04/18 03:45:04;;;;;;;9.13;4.90;;;3.80;99.90;;;;;;5046383;28;20191;-46
2022/04/18 03:47:32;;;;;;;6.63;4.23;;;3.80;99.90;;;;;;5040838;28;20291;-45
2022/04/18 03:50:00;;;;;;;6.13;4.20;;;3.80;99.90;;;;;;5044423;28;20241;-44
2022/04/18 03:52:27;;;;;;;9.47;5.10;;;3.80;99.90;;;;;;5055383;28;20213;-44
2022/04/18 03:54:58;;;;;;;4.33;3.93;;;3.80;99.90;;;;;;5045613;28;20292;-45
2022/04/18 03:57:31;;;;;;;6.77;4.20;;;3.80;99.90;;;;;;5035585;28;20219;-44
2022/04/18 04:00:05;;;;;;;7.10;4.70;;;3.70;99.90;;;;;;5055904;28;20254;-44
2022/04/18 04:02:43;;;;;;;6.37;4.17;;;3.70;99.90;;;;;;5052321;28;20545;-44
2022/04/18 04:05:15;;;;;;;4.83;4.17;;;3.70;99.90;;;;;;5044298;28;21020;-44
2022/04/18 04:07:46;;;;;;;4.80;3.57;;;3.40;99.90;;;;;;5046225;28;20210;-44
2022/04/18 04:10:27;;;;;;;5.57;4.33;;;3.60;99.90;;;;;;5051238;28;20233;-44
2022/04/18 04:12:54;;;;;;;5.93;4.07;;;3.60;99.90;;;;;;5038970;28;20215;-49
2022/04/18 04:15:40;;;;;;;7.57;4.60;;;3.60;99.90;;;;;;5053705;28;20214;-45
2022/04/18 04:18:14;;;;;;;7.67;4.23;;;3.60;99.90;;;;;;5054789;28;20947;-44
2022/04/18 04:20:44;;;;;;;6.03;4.50;;;3.60;99.90;;;;;;5050258;28;20213;-49
2022/04/18 04:23:12;;;;;;;5.70;3.87;;;3.60;99.90;;;;;;5053904;28;20223;-44
2022/04/18 04:25:56;;;;;;;5.13;4.33;;;3.70;99.90;;;;;;5045772;28;20301;-45
2022/04/18 04:28:37;;;;;;;4.67;3.83;;;3.60;99.90;;;;;;5043471;28;20203;-44
2022/04/18 04:31:03;;;;;;;5.47;4.27;;;3.60;99.90;;;;;;5048366;28;20235;-47
2022/04/18 04:33:31;;;;;;;6.17;4.67;;;3.60;99.90;;;;;;5040175;28;20259;-45
2022/04/18 04:36:01;;;;;;;4.90;4.40;;;3.60;99.90;;;;;;5049364;28;20206;-46
2022/04/18 04:38:28;;;;;;;5.10;3.93;;;3.60;99.90;;;;;;5053221;28;20278;-47
2022/04/18 04:40:57;;;;;;;9.10;4.57;;;3.60;99.90;;;;;;5052552;28;20256;-48
2022/04/18 04:43:50;;;;;;;6.57;4.97;;;3.50;99.90;;;;;;5050678;28;20575;-46
2022/04/18 04:46:22;;;;;;;4.60;4.20;;;3.50;99.90;;;;;;5052797;28;20328;-48
2022/04/18 04:48:56;;;;;;;4.93;4.27;;;3.50;99.90;;;;;;5045404;28;20231;-45
2022/04/18 04:51:24;;;;;;;6.47;4.13;;;3.50;99.90;;;;;;5049335;28;23142;-48
2022/04/18 04:53:52;;;;;;;5.57;4.57;;;3.50;99.90;;;;;;5054986;28;20222;-44
2022/04/18 04:56:29;;;;;;;6.27;4.53;;;3.50;99.90;;;;;;5047490;28;20221;-47
2022/04/18 04:58:58;;;;;;;5.67;4.47;;;3.40;99.90;;;;;;5048366;28;20599;-47
2022/04/18 05:01:26;;;;;;;6.20;4.03;;;3.50;99.90;;;;;;5058389;28;20453;-45
2022/04/18 05:04:09;;;;;;;11.03;4.50;;;3.50;99.90;;;;;;5043682;28;20262;-47
2022/04/18 05:06:40;;;;;;;5.07;4.37;;;3.50;99.90;;;;;;5050738;28;20210;-47
2022/04/18 05:09:11;;;;;;;7.60;4.50;;;3.50;99.90;;;;;;5052799;28;20207;-45
2022/04/18 05:11:38;;;;;;;7.13;4.90;;;3.60;99.90;;;;;;5047189;28;20608;-46
2022/04/18 05:14:11;;;;;;;8.77;4.67;;;3.60;99.90;;;;;;5037881;28;20220;-47
2022/04/18 05:16:46;;;;;;;10.30;4.83;;;3.60;99.90;;;;;;5062821;28;20281;-44
2022/04/18 05:19:13;;;;;;;9.20;4.87;;;3.70;99.90;;;;;;5047591;28;20191;-45
2022/04/18 05:21:42;;;;;;;7.50;4.87;;;3.70;99.90;;;;;;5054743;28;20292;-44
2022/04/18 05:24:17;;;;;;;6.53;4.73;;;3.70;99.90;;;;;;5046129;28;20222;-44
2022/04/18 05:26:46;;;;;;;5.67;5.03;;;3.80;99.90;;;;;;5052971;28;20233;-44
2022/04/18 05:29:13;;;;;;;7.57;5.30;;;3.80;99.90;;;;;;5045892;28;20206;-45
2022/04/18 05:31:40;;;;;;;5.73;4.90;;;3.90;99.90;;;;;;5062782;28;20249;-46
2022/04/18 05:34:07;;;;;;;7.70;5.80;;;3.90;99.90;;;;;;5053375;28;20584;-44
2022/04/18 05:36:55;;;;;;;6.27;5.23;;;4.00;99.90;;;;;;5046333;28;20215;-45
2022/04/18 05:39:42;;;;;;;6.07;4.80;;;4.10;99.90;;;;;;5046392;28;20237;-49
2022/04/18 05:42:09;;;;;;;8.50;5.53;;;4.20;99.90;;;;;;5041201;28;20322;-46
2022/04/18 05:44:36;;;;;;;7.43;5.73;;;4.20;99.90;;;;;;5059027;28;20218;-45
2022/04/18 05:47:04;;;;;;;8.17;5.90;;;4.30;99.90;;;;;;5042578;28;20199;-44
2022/04/18 05:49:30;;;;;;;9.10;6.00;;;4.40;99.90;;;;;;5055835;28;20199;-44
2022/04/18 05:52:03;;;;;;;7.40;5.57;;;4.60;99.90;;;;;;5051553;28;20688;-45
2022/04/18 05:54:30;;;;;;;8.03;5.60;;;4.70;99.90;;;;;;5047312;28;20207;-44
2022/04/18 05:57:05;;;;;;;9.00;5.50;;;4.90;99.90;;;;;;5048590;28;20263;-44
2022/04/18 05:59:43;;;;;;;8.80;5.87;;;5.10;99.90;;;;;;5037424;28;20209;-45
2022/04/18 06:02:14;;;;;;;7.17;5.77;;;5.30;99.90;;;;;;5047875;28;20222;-45
2022/04/18 06:04:49;;;;;;;6.90;5.63;;;5.40;99.90;;;;;;5049914;28;20199;-43
2022/04/18 06:07:23;;;;;;;7.70;5.43;;;5.60;99.90;;;;;;5057406;28;20282;-44
2022/04/18 06:10:13;;;;;;;8.30;5.80;;;5.70;99.90;;;;;;5053318;28;20206;-48
2022/04/18 06:12:40;;;;;;;7.93;5.77;;;5.80;99.90;;;;;;5037262;28;20203;-45
2022/04/18 06:15:08;;;;;;;7.53;5.67;;;6.00;99.90;;;;;;5057133;28;20284;-43
2022/04/18 06:17:35;;;;;;;7.97;6.60;;;6.10;99.90;;;;;;5037482;28;20195;-45
2022/04/18 06:20:04;;;;;;;8.33;6.20;;;6.30;99.90;;;;;;5050860;28;20230;-50
2022/04/18 06:22:32;;;;;;;9.60;5.80;;;6.40;99.90;;;;;;5051999;28;20265;-44
2022/04/18 06:24:59;;;;;;;7.20;6.30;;;6.50;99.90;;;;;;5044469;28;20824;-44
2022/04/18 06:27:32;;;;;;;7.37;5.97;;;6.70;99.90;;;;;;5052737;28;20295;-47
2022/04/18 06:29:59;;;;;;;10.53;6.50;;;6.80;99.90;;;;;;5040187;28;20199;-47
2022/04/18 06:32:36;;;;;;;6.90;5.43;;;6.90;99.90;;;;;;5046939;28;20727;-43
2022/04/18 06:35:03;;;;;;;6.70;5.27;;;7.00;99.90;;;;;;5054987;28;20207;-44
2022/04/18 06:37:32;;;;;;;7.07;5.60;;;7.20;99.90;;;;;;5053545;28;20625;-44
2022/04/18 06:40:07;;;;;;;7.73;5.93;;;7.30;99.90;;;;;;5047586;28;20210;-45
2022/04/18 06:42:40;;;;;;;6.47;5.30;;;7.50;99.90;;;;;;5067095;28;20234;-44
2022/04/18 06:45:21;;;;;;;6.10;5.47;;;7.60;99.90;;;;;;5052813;28;20283;-43
2022/04/18 06:47:48;;;;;;;8.03;6.07;;;7.90;99.90;;;;;;5044310;28;20198;-43
2022/04/18 06:50:20;;;;;;;8.13;5.83;;;8.10;99.90;;;;;;5048641;28;20214;-45
2022/04/18 06:53:07;;;;;;;8.03;6.13;;;8.20;99.90;;;;;;5056155;28;20310;-45
2022/04/18 06:58:53;;;;;;;7.83;5.30;;;8.50;99.90;;;;;;5036779;28;20210;-47
2022/04/18 07:01:20;;;;;;;6.47;5.50;;;8.60;99.90;;;;;;5051744;28;20218;-45
2022/04/18 07:03:47;;;;;;;6.43;5.63;;;8.80;99.90;;;;;;5041990;28;21110;-46
2022/04/18 07:06:14;;;;;;;9.27;5.80;;;8.90;99.90;;;;;;5055589;28;20294;-47
2022/04/18 07:08:42;;;;;;;7.00;5.57;;;9.00;99.90;;;;;;5055124;28;20297;-48
2022/04/18 07:11:31;;;;;;;9.77;5.33;;;9.10;99.90;;;;;;5051541;28;20238;-44
2022/04/18 07:13:58;;;;;;;5.40;4.73;;;9.20;99.90;;;;;;5051838;28;20288;-43
2022/04/18 07:16:29;;;;;;;7.00;5.33;;;9.30;99.90;;;;;;5055794;28;20234;-46
2022/04/18 07:18:58;;;;;;;5.97;5.33;;;9.40;99.90;;;;;;5049484;28;20246;-45
2022/04/18 07:21:25;;;;;;;8.37;5.53;;;9.50;99.90;;;;;;5042273;28;20238;-44
2022/04/18 07:23:53;;;;;;;6.23;5.33;;;9.60;99.90;;;;;;5054131;28;20333;-45
2022/04/18 07:26:21;;;;;;;6.33;5.10;;;9.80;99.90;;;;;;5048033;28;20199;-44
2022/04/18 07:28:48;;;;;;;6.97;5.17;;;9.80;99.90;;;;;;5048466;28;20880;-45
2022/04/18 07:31:16;;;;;;;7.17;4.97;;;10.00;99.90;;;;;;5056449;28;20689;-45
2022/04/18 07:33:43;;;;;;;7.00;5.17;;;10.10;99.90;;;;;;5039987;28;20876;-46
2022/04/18 07:36:15;;;;;;;10.70;6.10;;;10.20;99.90;;;;;;5040774;28;20223;-45
2022/04/18 07:38:52;;;;;;;5.77;4.80;;;10.30;99.90;;;;;;5047954;28;20499;-45
2022/04/18 07:41:32;;;;;;;6.13;4.90;;;10.30;99.90;;;;;;5049237;28;20255;-45
2022/04/18 07:44:03;;;;;;;6.00;5.30;;;10.50;99.90;;;;;;5040467;28;20521;-45
2022/04/18 07:46:32;;;;;;;10.17;5.13;;;10.50;99.90;;;;;;5046390;28;20203;-44
2022/04/18 07:49:00;;;;;;;6.43;5.10;;;10.70;99.90;;;;;;5044883;28;20209;-44
2022/04/18 07:51:35;;;;;;;6.93;4.67;;;10.80;99.90;;;;;;5044121;28;20712;-44
2022/04/18 07:54:09;;;;;;;6.80;4.90;;;10.90;99.90;;;;;;5056234;28;20204;-45
2022/04/18 07:56:38;;;;;;;7.33;5.13;;;11.00;99.90;;;;;;5050798;28;20225;-45
2022/04/18 07:59:05;;;;;;;6.60;5.10;;;11.10;99.90;;;;;;5041118;28;20210;-45
2022/04/18 08:01:36;;;;;;;6.53;4.43;;;11.30;99.90;;;;;;5048172;28;20231;-47
2022/04/18 08:04:04;;;;;;;6.87;5.27;;;11.40;99.90;;;;;;5042580;28;20214;-44
2022/04/18 08:06:34;;;;;;;6.57;5.50;;;11.50;99.90;;;;;;5044637;28;20222;-45
2022/04/18 08:09:22;;;;;;;5.03;4.53;;;11.80;99.90;;;;;;5069430;28;20238;-44
2022/04/18 08:11:51;;;;;;;8.37;5.37;;;11.80;99.10;;;;;;5046630;28;20231;-45
2022/04/18 08:14:26;;;;;;;6.57;4.60;;;11.90;98.80;;;;;;5043845;28;20206;-44
2022/04/18 08:17:00;;;;;;;7.40;5.20;;;11.80;98.20;;;;;;5052784;28;20890;-44
2022/04/18 08:19:35;;;;;;;7.17;5.37;;;11.90;98.00;;;;;;5050706;28;20203;-44
2022/04/18 08:22:04;;;;;;;5.67;4.77;;;12.00;97.90;;;;;;5057911;28;20223;-44
2022/04/18 08:24:32;;;;;;;6.40;5.13;;;12.10;97.50;;;;;;5056062;28;20227;-48
2022/04/18 08:27:20;;;;;;;6.73;5.00;;;12.10;97.30;;;;;;5055822;28;20280;-44
2022/04/18 08:29:58;;;;;;;6.40;5.37;;;12.20;96.90;;;;;;5050272;28;20209;-45
2022/04/18 08:32:39;;;;;;;8.80;5.33;;;12.30;96.80;;;;;;5052620;28;20279;-45
2022/04/18 08:35:08;;;;;;;6.70;5.67;;;12.40;96.40;;;;;;5043797;28;20729;-44
2022/04/18 08:37:36;;;;;;;6.10;4.80;;;12.40;96.00;;;;;;5055157;28;20298;-44
2022/04/18 08:40:18;;;;;;;6.17;5.43;;;12.40;95.90;;;;;;5045888;28;20608;-47
2022/04/18 08:42:53;;;;;;;6.93;5.10;;;12.60;96.40;;;;;;5041014;28;20222;-48
2022/04/18 08:45:23;;;;;;;7.33;5.27;;;12.70;95.60;;;;;;5048568;28;20306;-45
2022/04/18 08:53:28;;;;;;;7.23;5.70;;;13.10;95.00;;;;;;5052186;28;20191;-46
2022/04/18 08:55:56;;;;;;;7.97;6.03;;;13.10;94.80;;;;;;5051187;28;21029;-45
2022/04/18 08:58:32;;;;;;;7.30;5.80;;;13.10;94.60;;;;;;5058067;28;20203;-48
2022/04/18 09:01:02;;;;;;;7.77;5.77;;;13.10;94.30;;;;;;5056826;28;20206;-45
2022/04/18 09:03:48;;;;;;;11.23;5.60;;;13.10;93.90;;;;;;5045367;28;20858;-45
2022/04/18 09:06:17;;;;;;;7.40;5.70;;;13.20;94.00;;;;;;5053125;28;20561;-45
2022/04/18 09:09:01;;;;;;;6.47;5.70;;;13.30;93.80;;;;;;5051517;28;20338;-45
2022/04/18 09:11:32;;;;;;;6.90;5.87;;;13.30;93.00;;;;;;5043661;28;20287;-46
2022/04/18 09:14:08;;;;;;;7.23;5.70;;;13.40;92.20;;;;;;5050584;28;20781;-45
2022/04/18 09:16:38;;;;;;;6.00;5.27;;;13.40;91.90;;;;;;5051523;28;20219;-46
2022/04/18 09:19:09;;;;;;;7.60;6.00;;;13.40;92.10;;;;;;5057593;28;20310;-49
2022/04/18 09:21:42;;;;;;;6.13;5.47;;;13.40;91.80;;;;;;5053177;28;20214;-47
2022/04/18 09:24:24;;;;;;;8.63;5.63;;;13.40;91.40;;;;;;5049911;28;20293;-45
2022/04/18 09:27:07;;;;;;;7.50;5.70;;;13.40;91.00;;;;;;5042275;28;20195;-45
2022/04/18 09:29:38;;;;;;;7.27;5.60;;;13.50;91.40;;;;;;5059305;28;20195;-44
2022/04/18 09:32:08;;;;;;;6.70;5.60;;;13.60;90.90;;;;;;5051360;28;20306;-46
2022/04/18 09:34:46;;;;;;;8.43;6.27;;;13.60;90.50;;;;;;5053968;28;20947;-44
2022/04/18 09:37:15;;;;;;;6.13;5.53;;;13.50;90.10;;;;;;5051859;28;20314;-45
2022/04/18 09:39:44;;;;;;;6.37;5.43;;;13.50;90.00;;;;;;5043275;28;20215;-45
2022/04/18 09:42:12;;;;;;;6.63;5.40;;;13.40;89.80;;;;;;5049497;28;20688;-45
2022/04/18 09:45:00;;;;;;;5.53;4.77;;;13.60;90.40;;;;;;5052467;28;20203;-45
2022/04/18 09:47:35;;;;;;;9.03;6.00;;;13.70;89.40;;;;;;5053560;28;20264;-45
2022/04/18 09:50:58;;;;;;;6.83;5.60;;;13.80;87.70;;;;;;5050755;28;20298;-45
2022/04/18 09:53:08;;;;;;;5.27;4.77;;;13.70;85.40;;;;;;5048677;28;20190;-45
2022/04/18 09:55:35;;;;;;;5.17;4.67;;;13.70;87.20;;;;;;5051523;28;20997;-45
2022/04/18 09:58:03;;;;;;;5.93;4.83;;;13.80;86.10;;;;;;5048123;28;20213;-49
2022/04/18 10:00:31;;;;;;;4.97;4.47;;;13.90;86.60;;;;;;5048852;28;20199;-46
2022/04/18 10:02:59;;;;;;;4.47;4.07;;;14.00;85.60;;;;;;5069894;28;20233;-49
2022/04/18 10:05:27;;;;;;;4.20;3.80;;;14.00;82.60;;;;;;5042724;28;20661;-44
2022/04/18 10:07:56;;;;;;;5.10;4.07;;;14.10;81.70;;;;;;5046471;28;20249;-44
2022/04/18 10:10:23;;;;;;;6.50;4.40;;;14.20;80.40;;;;;;5046613;28;20317;-44
2022/04/18 10:12:51;;;;;;;4.53;3.90;;;14.20;81.20;;;;;;5040876;28;20313;-45
2022/04/18 10:15:18;;;;;;;5.17;4.43;;;14.20;79.60;;;;;;5055862;28;20689;-47
2022/04/18 10:17:47;;;;;;;4.73;3.90;;;14.20;79.40;;;;;;5057859;28;20703;-47
2022/04/18 10:20:35;;;;;;;4.57;4.17;;;15.30;98.40;;;;;;5064437;28;20195;-45
2022/04/18 10:23:25;;;;;;;8.23;4.33;;;13.30;91.70;;;;;;5057309;28;20218;-47
2022/04/18 10:26:45;;;;;;;5.10;4.20;;;14.40;78.60;;;;;;5043139;28;20209;-44
2022/04/18 10:29:18;;;;;;;5.10;4.20;;;14.40;79.40;;;;;;5006058;28;20242;-44
2022/04/18 10:31:46;;;;;;;4.57;3.87;;;14.60;78.80;;;;;;5009327;28;20219;-46
2022/04/18 10:34:14;;;;;;;4.60;4.20;;;14.60;79.00;;;;;;5037172;28;20214;-48
2022/04/18 10:36:46;;;;;;;7.20;4.27;;;14.70;78.70;;;;;;5054523;28;20222;-47
2022/04/18 10:39:14;;;;;;;5.43;4.53;;;14.70;77.50;;;;;;5056292;28;20201;-46
2022/04/18 10:41:43;;;;;;;4.17;3.87;;;14.70;77.20;;;;;;5046862;28;20621;-45
2022/04/18 10:44:11;;;;;;;5.63;4.40;;;14.70;77.40;;;;;;5041989;28;20964;-44
2022/04/18 10:46:39;;;;;;;6.40;4.90;;;14.70;76.90;;;;;;5050250;28;20226;-44
2022/04/18 10:49:16;;;;;;;5.30;4.37;;;14.80;76.50;;;;;;5053049;28;20194;-44
2022/04/18 10:51:44;;;;;;;5.03;4.53;;;14.70;76.50;;;;;;5058349;28;20214;-47
2022/04/18 10:54:14;;;;;;;5.30;4.37;;;14.80;76.70;;;;;;5051104;28;20285;-46
2022/04/18 10:56:54;;;;;;;4.90;4.03;;;15.00;76.90;;;;;;5056738;28;20676;-43
2022/04/18 10:59:23;;;;;;;4.30;3.90;;;15.00;76.40;;;;;;5040523;28;20195;-45
2022/04/18 11:01:50;;;;;;;5.63;4.50;;;15.20;75.80;;;;;;5044168;28;20305;-48
2022/04/18 11:04:23;;;;;;;4.67;3.97;;;15.20;73.80;;;;;;5052185;28;20222;-50
2022/04/18 11:06:52;;;;;;;4.70;4.07;;;15.20;74.40;;;;;;5053185;28;20199;-48
2022/04/18 11:09:23;;;;;;;5.00;4.07;;;15.00;72.70;;;;;;5050358;28;20602;-44
2022/04/18 11:12:01;;;;;;;4.70;3.93;;;14.80;72.50;;;;;;5043771;28;20219;-48
2022/04/18 11:14:31;;;;;;;3.57;3.20;;;14.80;71.30;;;;;;5036058;28;20611;-45
2022/04/18 11:17:01;;;;;;;5.27;3.63;;;15.00;73.60;;;;;;5051305;28;20685;-47
2022/04/18 11:19:31;;;;;;;4.90;3.50;;;15.20;70.50;;;;;;5045279;28;20209;-45
2022/04/18 11:22:10;;;;;;;5.23;3.90;;;15.20;68.50;;;;;;5050077;28;20225;-44
2022/04/18 11:24:40;;;;;;;5.87;3.53;;;15.20;67.50;;;;;;5050292;28;20199;-45
2022/04/18 11:27:09;;;;;;;5.00;3.13;;;15.20;67.40;;;;;;5042480;28;20187;-46
2022/04/18 11:29:37;;;;;;;4.13;2.97;;;15.40;67.30;;;;;;5031705;28;20225;-48
2022/04/18 11:32:05;;;;;;;4.37;3.30;;;15.60;66.30;;;;;;5049651;28;20207;-46
2022/04/18 11:34:35;;;;;;;4.87;3.57;;;15.60;65.50;;;;;;5054391;28;20210;-50
2022/04/18 11:37:03;;;;;;;3.20;2.53;;;15.60;64.00;;;;;;5050836;28;20214;-43
2022/04/18 11:39:45;;;;;;;3.40;2.90;;;15.70;65.60;;;;;;5045897;28;20206;-48
2022/04/18 11:42:16;;;;;;;4.17;2.63;;;15.90;64.50;;;;;;5048419;28;20395;-44
2022/04/18 11:44:44;;;;;;;5.07;3.00;;;16.00;64.80;;;;;;5040641;28;20206;-46
2022/04/18 11:47:14;;;;;;;3.73;2.33;;;16.00;64.20;;;;;;5055181;28;20872;-49
2022/04/18 11:49:45;;;;;;;3.23;2.53;;;15.90;62.90;;;;;;5055265;28;20224;-43
2022/04/18 11:52:18;;;;;;;5.10;3.20;;;15.80;63.70;;;;;;5057631;28;20214;-46
2022/04/18 11:54:57;;;;;;;4.73;2.70;;;15.80;64.90;;;;;;5057102;28;20612;-47
2022/04/18 11:57:23;;;;;;;4.07;2.43;;;16.00;65.60;;;;;;5051713;28;20211;-46
2022/04/18 11:59:50;;;;;;;3.77;2.80;;;16.10;65.00;;;;;;5052658;28;20199;-45
2022/04/18 12:07:48;;;;;;;3.90;3.27;;;16.20;63.70;;;;;;5049803;28;20203;-44
2022/04/18 12:10:23;;;;;;;3.53;2.77;;;16.20;62.80;;;;;;5058573;28;20214;-45
2022/04/18 12:12:50;;;;;;;6.93;3.37;;;16.30;62.80;;;;;;5062957;28;20213;-46
2022/04/18 12:15:17;;;;;;;3.40;2.90;;;16.30;63.30;;;;;;5049454;28;20210;-43
2022/04/18 12:17:44;;;;;;;4.10;2.70;;;16.40;62.60;;;;;;5050616;28;20233;-46
2022/04/18 12:20:23;;;;;;;5.17;3.70;;;16.40;63.40;;;;;;5056452;28;20195;-46
2022/04/18 12:22:52;;;;;;;5.77;2.93;;;16.30;61.70;;;;;;5048565;28;20241;-44
2022/04/18 12:25:26;;;;;;;3.07;2.73;;;16.30;63.10;;;;;;5060222;28;20831;-43
2022/04/18 12:27:53;;;;;;;2.57;2.30;;;16.30;62.90;;;;;;5061242;28;20190;-42
2022/04/18 12:30:20;;;;;;;4.13;3.17;;;16.40;63.00;;;;;;5056685;28;20202;-44
2022/04/18 12:32:48;;;;;;;4.27;2.93;;;16.50;62.40;;;;;;5051263;28;20241;-42
2022/04/18 12:35:37;;;;;;;4.47;3.00;;;16.50;63.80;;;;;;5063202;28;20615;-50
2022/04/18 12:38:06;;;;;;;2.80;2.50;;;16.50;61.50;;;;;;5056698;28;20218;-48
2022/04/18 12:40:36;;;;;;;2.60;2.40;;;16.50;63.30;;;;;;5058786;28;20202;-45
2022/04/18 12:43:09;;;;;;;3.57;2.93;;;16.60;64.80;;;;;;5058982;28;20939;-45
2022/04/18 12:45:48;;;;;;;4.70;3.20;;;16.70;65.30;;;;;;5058613;28;20209;-42
2022/04/18 12:48:15;;;;;;;5.00;2.80;;;16.80;64.10;;;;;;5050350;28;20210;-44
2022/04/18 12:50:45;;;;;;;4.97;3.07;;;16.80;64.90;;;;;;5064353;28;20454;-45
2022/04/18 12:53:12;;;;;;;4.03;3.03;;;16.90;64.50;;;;;;5051135;28;20204;-46
2022/04/18 12:55:38;;;;;;;3.30;2.43;;;17.00;63.40;;;;;;5061416;28;20263;-45
2022/04/18 12:58:15;;;;;;;3.70;2.33;;;17.00;61.70;;;;;;5058011;28;20206;-43
2022/04/18 13:00:46;;;;;;;3.03;2.63;;;17.10;59.20;;;;;;5044625;28;20211;-47
2022/04/18 13:03:14;;;;;;;4.57;3.27;;;17.00;59.00;;;;;;5056881;28;20198;-46
2022/04/18 13:05:45;;;;;;;3.13;2.57;;;17.00;61.40;;;;;;5045991;28;20217;-43
2022/04/18 13:08:13;;;;;;;2.50;2.20;;;17.20;60.30;;;;;;5053543;28;20269;-47
2022/04/18 13:10:40;;;;;;;6.30;3.17;;;17.40;59.40;;;;;;5046804;28;20198;-46
2022/04/18 13:13:11;;;;;;;16.63;6.27;;;17.30;59.10;;;;;;5058210;28;20210;-46
2022/04/18 13:15:40;;;;;;;3.27;2.10;;;17.70;60.10;;;;;;5062002;28;20887;-43
2022/04/18 13:18:09;;;;;;;5.47;3.10;;;17.90;58.70;;;;;;5050501;28;20998;-47
2022/04/18 13:20:38;;;;;;;3.00;2.60;;;18.10;59.80;;;;;;5049859;28;20202;-46
2022/04/18 13:23:07;;;;;;;2.67;2.20;;;18.60;59.10;;;;;;5050407;28;20219;-44
2022/04/18 13:25:35;;;;;;;2.80;2.47;;;18.90;57.20;;;;;;5052386;28;20214;-45
2022/04/18 13:28:06;;;;;;;3.63;2.50;;;19.20;56.20;;;;;;5050804;28;20191;-43
2022/04/18 13:30:36;;;;;;;2.93;2.30;;;19.30;56.70;;;;;;5053288;28;20195;-44
2022/04/18 13:33:05;;;;;;;3.47;2.37;;;19.50;55.90;;;;;;5042376;28;20226;-48
2022/04/18 13:35:33;;;;;;;4.47;2.10;;;19.70;56.80;;;;;;5050680;28;20195;-47
2022/04/18 13:37:59;;;;;;;3.30;2.10;;;19.90;55.50;;;;;;5056007;28;20214;-44
2022/04/18 13:40:27;;;;;;;2.20;1.73;;;19.90;55.30;;;;;;5047085;28;20667;-43